First Ferry Vi — VRS4293 — position and weather

sailwx.info

Track history (hours):
 
Tides and Currents Weather Stations Pressure Air Temp Water Temp Dewpoint Dewpoint Depression Visibility Wind Speed Wind Dir Waves Ship Positions

First Ferry Vi

Last reported at 2014-Sep-01 23:29 UTC. Time now 2014-Sep-01 23:37 UTC.
Position N 22°17' E 114°10'.

Length 36 m; draft 1.8 m.

Type: Ship. MMSI: 477995028.

Date/timePositionNaut miles runAvg speedWind from/ knotsBaromVisibWave heightAir tempDewpointWater temp
2014-Sep-01 23:29N 22°17' E 114°10'0 0.0
2014-Sep-01 16:33N 22°17' E 114°10'0 0.0
2014-Sep-01 14:26N 22°17' E 114°10'1 0.4
2014-Sep-01 11:09N 22°18' E 114°08'3 1.1
2014-Sep-01 08:30N 22°18' E 114°11'2 0.8
2014-Sep-01 06:18N 22°17' E 114°10'0 0.0
2014-Sep-01 04:19N 22°17' E 114°10'1 0.3
2014-Sep-01 02:10N 22°18' E 114°09'1 1.1
2014-Sep-01 01:10N 22°19' E 114°09'2 1.0
2014-Aug-31 23:31N 22°17' E 114°10'0 0.0
2014-Aug-31 16:33N 22°17' E 114°09'2 0.7
2014-Aug-31 14:31N 22°18' E 114°08'0 0.1
2014-Aug-31 12:30N 22°18' E 114°08'0 0.2
2014-Aug-31 10:30N 22°18' E 114°08'1 0.2
2014-Aug-31 08:29N 22°18' E 114°08'0 0.1
2014-Aug-31 06:29N 22°18' E 114°08'1 0.2
2014-Aug-31 04:10N 22°18' E 114°09'1 0.4
2014-Aug-31 02:33N 22°17' E 114°09'1 0.7
2014-Aug-31 01:08N 22°18' E 114°08'1 1.7
2014-Aug-31 00:33N 22°18' E 114°09'1 0.6
2014-Aug-30 23:03N 22°19' E 114°09'2 0.2
2014-Aug-30 15:33N 22°17' E 114°10'2 1.2
2014-Aug-30 14:09N 22°18' E 114°08'1 1.4
2014-Aug-30 13:34N 22°18' E 114°09'1 0.4
2014-Aug-30 11:33N 22°17' E 114°10'2 1.2
2014-Aug-30 10:09N 22°18' E 114°08'2 3.3
2014-Aug-30 09:33N 22°17' E 114°10'0 0.2
2014-Aug-30 07:23N 22°17' E 114°10'0 0.0
2014-Aug-30 05:31N 22°17' E 114°10'1 0.6
2014-Aug-30 03:33N 22°18' E 114°09'1 0.4
2014-Aug-30 01:33N 22°18' E 114°10'1 0.8
2014-Aug-30 00:29N 22°17' E 114°10'2 1.6
2014-Aug-29 23:09N 22°18' E 114°08'1 0.2
2014-Aug-29 15:32N 22°17' E 114°10'1 1.0
2014-Aug-29 14:06N 22°18' E 114°08'1 2.5
2014-Aug-29 13:33N 22°17' E 114°10'1 0.9
2014-Aug-29 12:09N 22°18' E 114°08'0 0.8
2014-Aug-29 11:34N 22°18' E 114°09'1 0.6
2014-Aug-29 10:31N 22°18' E 114°08'1 0.6
2014-Aug-29 08:16N 22°17' E 114°10'0 0.1
2014-Aug-29 03:33N 22°17' E 114°10'0 0.1
2014-Aug-29 01:33N 22°17' E 114°10'2 1.8
2014-Aug-29 00:32N 22°19' E 114°09'2 1.1
2014-Aug-28 23:08N 22°18' E 114°08'1 0.2
2014-Aug-28 15:32N 22°17' E 114°10'2 1.2
2014-Aug-28 14:10N 22°18' E 114°08'2 2.7
2014-Aug-28 13:33N 22°17' E 114°10'2 1.1
2014-Aug-28 12:10N 22°18' E 114°08'1 0.3
2014-Aug-28 10:31N 22°18' E 114°09'1 0.5
2014-Aug-28 08:26N 22°17' E 114°10'1 0.3
2014-Aug-28 03:33N 22°18' E 114°11'1 0.7
2014-Aug-28 01:33N 22°18' E 114°10'1 0.7
2014-Aug-28 00:33N 22°18' E 114°09'2 1.1
2014-Aug-27 23:10N 22°17' E 114°08'2 0.2
2014-Aug-27 15:33N 22°17' E 114°10'1 0.8
2014-Aug-27 14:08N 22°18' E 114°08'1 2.0
2014-Aug-27 13:33N 22°17' E 114°10'2 1.5
2014-Aug-27 12:11N 22°18' E 114°07'1 0.3
2014-Aug-27 10:31N 22°18' E 114°08'1 0.7
2014-Aug-27 08:31N 22°17' E 114°10'1 0.1
2014-Aug-27 03:33N 22°18' E 114°09'0 0.1
2014-Aug-27 00:31N 22°18' E 114°09'1 0.6
2014-Aug-26 23:09N 22°18' E 114°08'1 0.2
2014-Aug-26 15:30N 22°17' E 114°10'1 0.8
2014-Aug-26 14:08N 22°18' E 114°09'1 0.4
2014-Aug-26 12:33N 22°18' E 114°09'1 0.9
2014-Aug-26 11:24N 22°18' E 114°08'2 0.5
2014-Aug-26 07:26N 22°17' E 114°10'1 0.2
2014-Aug-26 05:20N 22°17' E 114°10'0 0.0
2014-Aug-26 03:17N 22°17' E 114°10'1 0.3
2014-Aug-26 01:33N 22°17' E 114°10'1 1.3
2014-Aug-26 00:30N 22°18' E 114°09'1 0.8
2014-Aug-25 23:07N 22°18' E 114°08'6 0.9
2014-Aug-25 16:18N 22°15' E 114°02'7 6.3
2014-Aug-25 15:07N 22°17' E 114°10'2 1.6
2014-Aug-25 14:09N 22°18' E 114°08'2 2.4
2014-Aug-25 13:24N 22°17' E 114°10'0 0.4
2014-Aug-25 12:33N 22°17' E 114°10'1 0.9
2014-Aug-25 11:23N 22°18' E 114°08'0 0.1
2014-Aug-25 10:08N 22°18' E 114°08'1 0.1
2014-Aug-25 00:30N 22°18' E 114°09'1 0.9
2014-Aug-24 23:08N 22°18' E 114°08'1 0.2
2014-Aug-24 15:17N 22°17' E 114°10'0 0.0
2014-Aug-24 13:08N 22°17' E 114°10'0 0.0
2014-Aug-24 11:11N 22°17' E 114°10'0 0.1
2014-Aug-24 09:11N 22°17' E 114°10'0 0.0
2014-Aug-24 07:10N 22°17' E 114°10'0 0.0
2014-Aug-24 05:09N 22°17' E 114°10'1 1.4
2014-Aug-24 04:06N 22°18' E 114°08'0 0.1
2014-Aug-24 02:30N 22°18' E 114°08'1 0.6
2014-Aug-24 00:33N 22°17' E 114°10'1 0.8
2014-Aug-23 23:07N 22°18' E 114°08'1 0.1
2014-Aug-23 03:19N 22°17' E 114°10'0 0.1
2014-Aug-23 01:11N 22°17' E 114°10'1 2.0
2014-Aug-23 00:29N 22°19' E 114°09'1 0.9
2014-Aug-22 23:08N 22°18' E 114°08'  
Track history (hours):
 
Tides and Currents Weather Stations Pressure Air Temp Water Temp Dewpoint Dewpoint Depression Visibility Wind Speed Wind Dir Waves Ship Positions

First Ferry Vi

Last reported at 2014-Sep-01 23:29 UTC. Time now 2014-Sep-01 23:37 UTC.
Position N 22°17' E 114°10'.

Length 36 m; draft 1.8 m.

Type: Ship. MMSI: 477995028.

Date/timePositionNaut miles runAvg speedWind from/ knotsBaromVisibWave heightAir tempDewpointWater temp
2014-Sep-01 23:29N 22°17' E 114°10'0 0.0
2014-Sep-01 16:33N 22°17' E 114°10'0 0.0
2014-Sep-01 14:26N 22°17' E 114°10'1 0.4
2014-Sep-01 11:09N 22°18' E 114°08'3 1.1
2014-Sep-01 08:30N 22°18' E 114°11'2 0.8
2014-Sep-01 06:18N 22°17' E 114°10'0 0.0
2014-Sep-01 04:19N 22°17' E 114°10'1 0.3
2014-Sep-01 02:10N 22°18' E 114°09'1 1.1
2014-Sep-01 01:10N 22°19' E 114°09'2 1.0
2014-Aug-31 23:31N 22°17' E 114°10'0 0.0
2014-Aug-31 16:33N 22°17' E 114°09'2 0.7
2014-Aug-31 14:31N 22°18' E 114°08'0 0.1
2014-Aug-31 12:30N 22°18' E 114°08'0 0.2
2014-Aug-31 10:30N 22°18' E 114°08'1 0.2
2014-Aug-31 08:29N 22°18' E 114°08'0 0.1
2014-Aug-31 06:29N 22°18' E 114°08'1 0.2
2014-Aug-31 04:10N 22°18' E 114°09'1 0.4
2014-Aug-31 02:33N 22°17' E 114°09'1 0.7
2014-Aug-31 01:08N 22°18' E 114°08'1 1.7
2014-Aug-31 00:33N 22°18' E 114°09'1 0.6
2014-Aug-30 23:03N 22°19' E 114°09'2 0.2
2014-Aug-30 15:33N 22°17' E 114°10'2 1.2
2014-Aug-30 14:09N 22°18' E 114°08'1 1.4
2014-Aug-30 13:34N 22°18' E 114°09'1 0.4
2014-Aug-30 11:33N 22°17' E 114°10'2 1.2
2014-Aug-30 10:09N 22°18' E 114°08'2 3.3
2014-Aug-30 09:33N 22°17' E 114°10'0 0.2
2014-Aug-30 07:23N 22°17' E 114°10'0 0.0
2014-Aug-30 05:31N 22°17' E 114°10'1 0.6
2014-Aug-30 03:33N 22°18' E 114°09'1 0.4
2014-Aug-30 01:33N 22°18' E 114°10'1 0.8
2014-Aug-30 00:29N 22°17' E 114°10'2 1.6
2014-Aug-29 23:09N 22°18' E 114°08'1 0.2
2014-Aug-29 15:32N 22°17' E 114°10'1 1.0
2014-Aug-29 14:06N 22°18' E 114°08'1 2.5
2014-Aug-29 13:33N 22°17' E 114°10'1 0.9
2014-Aug-29 12:09N 22°18' E 114°08'0 0.8
2014-Aug-29 11:34N 22°18' E 114°09'1 0.6
2014-Aug-29 10:31N 22°18' E 114°08'1 0.6
2014-Aug-29 08:16N 22°17' E 114°10'0 0.1
2014-Aug-29 03:33N 22°17' E 114°10'0 0.1
2014-Aug-29 01:33N 22°17' E 114°10'2 1.8
2014-Aug-29 00:32N 22°19' E 114°09'2 1.1
2014-Aug-28 23:08N 22°18' E 114°08'1 0.2
2014-Aug-28 15:32N 22°17' E 114°10'2 1.2
2014-Aug-28 14:10N 22°18' E 114°08'2 2.7
2014-Aug-28 13:33N 22°17' E 114°10'2 1.1
2014-Aug-28 12:10N 22°18' E 114°08'1 0.3
2014-Aug-28 10:31N 22°18' E 114°09'1 0.5
2014-Aug-28 08:26N 22°17' E 114°10'1 0.3
2014-Aug-28 03:33N 22°18' E 114°11'1 0.7
2014-Aug-28 01:33N 22°18' E 114°10'1 0.7
2014-Aug-28 00:33N 22°18' E 114°09'2 1.1
2014-Aug-27 23:10N 22°17' E 114°08'2 0.2
2014-Aug-27 15:33N 22°17' E 114°10'1 0.8
2014-Aug-27 14:08N 22°18' E 114°08'1 2.0
2014-Aug-27 13:33N 22°17' E 114°10'2 1.5
2014-Aug-27 12:11N 22°18' E 114°07'1 0.3
2014-Aug-27 10:31N 22°18' E 114°08'1 0.7
2014-Aug-27 08:31N 22°17' E 114°10'1 0.1
2014-Aug-27 03:33N 22°18' E 114°09'0 0.1
2014-Aug-27 00:31N 22°18' E 114°09'1 0.6
2014-Aug-26 23:09N 22°18' E 114°08'1 0.2
2014-Aug-26 15:30N 22°17' E 114°10'1 0.8
2014-Aug-26 14:08N 22°18' E 114°09'1 0.4
2014-Aug-26 12:33N 22°18' E 114°09'1 0.9
2014-Aug-26 11:24N 22°18' E 114°08'2 0.5
2014-Aug-26 07:26N 22°17' E 114°10'1 0.2
2014-Aug-26 05:20N 22°17' E 114°10'0 0.0
2014-Aug-26 03:17N 22°17' E 114°10'1 0.3
2014-Aug-26 01:33N 22°17' E 114°10'1 1.3
2014-Aug-26 00:30N 22°18' E 114°09'1 0.8
2014-Aug-25 23:07N 22°18' E 114°08'6 0.9
2014-Aug-25 16:18N 22°15' E 114°02'7 6.3
2014-Aug-25 15:07N 22°17' E 114°10'2 1.6
2014-Aug-25 14:09N 22°18' E 114°08'2 2.4
2014-Aug-25 13:24N 22°17' E 114°10'0 0.4
2014-Aug-25 12:33N 22°17' E 114°10'1 0.9
2014-Aug-25 11:23N 22°18' E 114°08'0 0.1
2014-Aug-25 10:08N 22°18' E 114°08'1 0.1
2014-Aug-25 00:30N 22°18' E 114°09'1 0.9
2014-Aug-24 23:08N 22°18' E 114°08'1 0.2
2014-Aug-24 15:17N 22°17' E 114°10'0 0.0
2014-Aug-24 13:08N 22°17' E 114°10'0 0.0
2014-Aug-24 11:11N 22°17' E 114°10'0 0.1
2014-Aug-24 09:11N 22°17' E 114°10'0 0.0
2014-Aug-24 07:10N 22°17' E 114°10'0 0.0
2014-Aug-24 05:09N 22°17' E 114°10'1 1.4
2014-Aug-24 04:06N 22°18' E 114°08'0 0.1
2014-Aug-24 02:30N 22°18' E 114°08'1 0.6
2014-Aug-24 00:33N 22°17' E 114°10'1 0.8
2014-Aug-23 23:07N 22°18' E 114°08'1 0.1
2014-Aug-23 03:19N 22°17' E 114°10'0 0.1
2014-Aug-23 01:11N 22°17' E 114°10'1 2.0
2014-Aug-23 00:29N 22°19' E 114°09'1 0.9
2014-Aug-22 23:08N 22°18' E 114°08'  

Dump ship's entire track history